WAT2771 KLFT-KIAH
Flight info
| Callsign | WAT2771 |
|---|---|
| Flight time | 0h 39m |
| Altitude | 28000 |
| Route | GIRLY LINKK1 |
| Aircraft | B752/M-SDE2E3FGHIJ3J4J7RWXY/LB1 |
Departure
| Time | 2026-04-24 23:52 |
|---|---|
| Airport | Lafayette Regional Airport (KLFT) |
Arrival
| Time | 2026-04-25 00:32 |
|---|---|
| Airport | George Bush Intercontinental Airport (KIAH) |
| Time | Latitude | Longitude | Altitude | Speed | Heading |
|---|---|---|---|---|---|
| 2026-04-24 23:36 | 30.20956 | -91.98910 | 42 ft | 0 kts | 108° |
| 2026-04-24 23:48 | 30.20951 | -91.98882 | 42 ft | 5 kts | 91° |
| 2026-04-24 23:48 | 30.20973 | -91.98835 | 40 ft | 7 kts | 49° |
| 2026-04-24 23:49 | 30.21024 | -91.98763 | 39 ft | 14 kts | 56° |
| 2026-04-24 23:49 | 30.21081 | -91.98659 | 37 ft | 16 kts | 57° |
| 2026-04-24 23:49 | 30.21088 | -91.98539 | 35 ft | 16 kts | 123° |
| 2026-04-24 23:49 | 30.21022 | -91.98438 | 35 ft | 15 kts | 127° |
| 2026-04-24 23:50 | 30.20995 | -91.98349 | 34 ft | 10 kts | 65° |
| 2026-04-24 23:50 | 30.21077 | -91.98265 | 30 ft | 19 kts | 38° |
| 2026-04-24 23:50 | 30.21186 | -91.98164 | 27 ft | 20 kts | 39° |
| 2026-04-24 23:50 | 30.21302 | -91.98058 | 25 ft | 21 kts | 38° |
| 2026-04-24 23:51 | 30.21390 | -91.97957 | 24 ft | 9 kts | 86° |
| 2026-04-24 23:51 | 30.21372 | -91.97892 | 24 ft | 7 kts | 132° |
| 2026-04-24 23:51 | 30.21321 | -91.97832 | 24 ft | 10 kts | 149° |
| 2026-04-24 23:51 | 30.21265 | -91.97833 | 24 ft | 7 kts | 205° |
| 2026-04-24 23:52 | 30.21115 | -91.97969 | 26 ft | 60 kts | 219° |
| 2026-04-24 23:52 | 30.20586 | -91.98457 | 36 ft | 131 kts | 218° |
| 2026-04-24 23:52 | 30.19728 | -91.99262 | 251 ft | 176 kts | 218° |
| 2026-04-24 23:52 | 30.18840 | -92.00176 | 1242 ft | 171 kts | 220° |
| 2026-04-24 23:53 | 30.17984 | -92.01105 | 1987 ft | 178 kts | 221° |
| 2026-04-24 23:53 | 30.17012 | -92.02152 | 2472 ft | 201 kts | 220° |
| 2026-04-24 23:53 | 30.15953 | -92.03265 | 3132 ft | 216 kts | 221° |
| 2026-04-24 23:53 | 30.14947 | -92.04646 | 3769 ft | 235 kts | 236° |
| 2026-04-24 23:54 | 30.14006 | -92.06261 | 4404 ft | 253 kts | 234° |
| 2026-04-24 23:54 | 30.12968 | -92.07941 | 5253 ft | 261 kts | 234° |
| 2026-04-24 23:54 | 30.11908 | -92.09630 | 6228 ft | 264 kts | 235° |
| 2026-04-24 23:54 | 30.10822 | -92.11342 | 7126 ft | 269 kts | 235° |
| 2026-04-24 23:55 | 30.09704 | -92.13094 | 8016 ft | 274 kts | 235° |
| 2026-04-24 23:55 | 30.08587 | -92.14886 | 8890 ft | 278 kts | 238° |
| 2026-04-24 23:55 | 30.07514 | -92.16718 | 9752 ft | 282 kts | 238° |
| 2026-04-24 23:55 | 30.06371 | -92.18571 | 10567 ft | 289 kts | 237° |
| 2026-04-24 23:56 | 30.05103 | -92.20486 | 10985 ft | 310 kts | 234° |
| 2026-04-24 23:56 | 30.03729 | -92.22510 | 11375 ft | 329 kts | 236° |
| 2026-04-24 23:56 | 30.02305 | -92.24666 | 11727 ft | 348 kts | 236° |
| 2026-04-24 23:56 | 30.00817 | -92.26940 | 12289 ft | 359 kts | 236° |
| 2026-04-24 23:57 | 29.99320 | -92.29236 | 13083 ft | 363 kts | 236° |
| 2026-04-24 23:57 | 29.97802 | -92.31574 | 13856 ft | 367 kts | 237° |
| 2026-04-24 23:57 | 29.96288 | -92.33907 | 14590 ft | 370 kts | 237° |
| 2026-04-24 23:57 | 29.94742 | -92.36292 | 15336 ft | 373 kts | 237° |
| 2026-04-24 23:58 | 29.93183 | -92.38697 | 16003 ft | 378 kts | 237° |
| 2026-04-24 23:58 | 29.91612 | -92.41122 | 16739 ft | 381 kts | 237° |
| 2026-04-24 23:58 | 29.90018 | -92.43579 | 17465 ft | 384 kts | 237° |
| 2026-04-24 23:58 | 29.88411 | -92.46056 | 18096 ft | 389 kts | 237° |
| 2026-04-24 23:59 | 29.86788 | -92.48553 | 18820 ft | 390 kts | 237° |
| 2026-04-24 23:59 | 29.85171 | -92.51041 | 19473 ft | 393 kts | 238° |
| 2026-04-24 23:59 | 29.83518 | -92.53590 | 20088 ft | 396 kts | 238° |
| 2026-04-24 23:59 | 29.81952 | -92.56162 | 20707 ft | 397 kts | 240° |
| 2026-04-25 00:00 | 29.80336 | -92.58774 | 21271 ft | 401 kts | 239° |
| 2026-04-25 00:00 | 29.78694 | -92.61370 | 21928 ft | 402 kts | 239° |
| 2026-04-25 00:00 | 29.77023 | -92.63980 | 22406 ft | 407 kts | 239° |
| 2026-04-25 00:00 | 29.75355 | -92.66563 | 23076 ft | 406 kts | 238° |
| 2026-04-25 00:01 | 29.73664 | -92.69175 | 23553 ft | 411 kts | 238° |
| 2026-04-25 00:01 | 29.71942 | -92.71822 | 24140 ft | 414 kts | 238° |
| 2026-04-25 00:01 | 29.70214 | -92.74472 | 24713 ft | 416 kts | 239° |
| 2026-04-25 00:01 | 29.68495 | -92.77105 | 25268 ft | 417 kts | 239° |
| 2026-04-25 00:02 | 29.66734 | -92.79797 | 25986 ft | 415 kts | 239° |
| 2026-04-25 00:02 | 29.65030 | -92.82398 | 26760 ft | 411 kts | 240° |
| 2026-04-25 00:02 | 29.63307 | -92.85030 | 27385 ft | 410 kts | 240° |
| 2026-04-25 00:02 | 29.61611 | -92.87620 | 27849 ft | 411 kts | 240° |
| 2026-04-25 00:03 | 29.59876 | -92.90251 | 27841 ft | 414 kts | 239° |
| 2026-04-25 00:03 | 29.58083 | -92.92802 | 27839 ft | 407 kts | 238° |
| 2026-04-25 00:03 | 29.56329 | -92.95364 | 27842 ft | 407 kts | 239° |
| 2026-04-25 00:03 | 29.54586 | -92.97958 | 27846 ft | 418 kts | 239° |
| 2026-04-25 00:04 | 29.52798 | -93.00641 | 27849 ft | 429 kts | 239° |
| 2026-04-25 00:04 | 29.51113 | -93.03509 | 27848 ft | 431 kts | 248° |
| 2026-04-25 00:04 | 29.49902 | -93.06612 | 27848 ft | 429 kts | 256° |
| 2026-04-25 00:04 | 29.49037 | -93.11046 | 27495 ft | 428 kts | 267° |
| 2026-04-25 00:05 | 29.48941 | -93.13296 | 27145 ft | 427 kts | 273° |
| 2026-04-25 00:05 | 29.49057 | -93.16676 | 26608 ft | 426 kts | 274° |
| 2026-04-25 00:05 | 29.49178 | -93.20061 | 26062 ft | 424 kts | 275° |
| 2026-04-25 00:05 | 29.49287 | -93.23420 | 25518 ft | 421 kts | 274° |
| 2026-04-25 00:06 | 29.49365 | -93.26759 | 25000 ft | 417 kts | 274° |
| 2026-04-25 00:06 | 29.49462 | -93.30073 | 24481 ft | 416 kts | 274° |
| 2026-04-25 00:06 | 29.49571 | -93.33387 | 23960 ft | 414 kts | 274° |
| 2026-04-25 00:06 | 29.49683 | -93.36637 | 23445 ft | 413 kts | 274° |
| 2026-04-25 00:07 | 29.49800 | -93.39936 | 22920 ft | 411 kts | 275° |
| 2026-04-25 00:07 | 29.49917 | -93.43166 | 22431 ft | 409 kts | 275° |
| 2026-04-25 00:07 | 29.50036 | -93.46426 | 21929 ft | 408 kts | 275° |
| 2026-04-25 00:07 | 29.50157 | -93.49679 | 21414 ft | 405 kts | 275° |
| 2026-04-25 00:08 | 29.50274 | -93.52850 | 20915 ft | 404 kts | 274° |
| 2026-04-25 00:08 | 29.50394 | -93.56078 | 20401 ft | 402 kts | 274° |
| 2026-04-25 00:08 | 29.50512 | -93.59306 | 19876 ft | 407 kts | 274° |
| 2026-04-25 00:08 | 29.50634 | -93.62589 | 19276 ft | 421 kts | 274° |
| 2026-04-25 00:09 | 29.50755 | -93.65925 | 18543 ft | 419 kts | 274° |
| 2026-04-25 00:09 | 29.50873 | -93.69212 | 17827 ft | 414 kts | 274° |
| 2026-04-25 00:09 | 29.50991 | -93.72495 | 17230 ft | 409 kts | 273° |
| 2026-04-25 00:09 | 29.51105 | -93.75706 | 16882 ft | 406 kts | 273° |
| 2026-04-25 00:10 | 29.51222 | -93.78987 | 16281 ft | 413 kts | 273° |
| 2026-04-25 00:10 | 29.51370 | -93.82233 | 15952 ft | 398 kts | 275° |
| 2026-04-25 00:10 | 29.51528 | -93.85394 | 15963 ft | 401 kts | 274° |
| 2026-04-25 00:10 | 29.51663 | -93.88615 | 15963 ft | 410 kts | 274° |
| 2026-04-25 00:11 | 29.51789 | -93.91855 | 15950 ft | 404 kts | 273° |
| 2026-04-25 00:11 | 29.51908 | -93.95052 | 15957 ft | 404 kts | 274° |
| 2026-04-25 00:11 | 29.52028 | -93.98321 | 15359 ft | 412 kts | 273° |
| 2026-04-25 00:11 | 29.52143 | -94.01556 | 14621 ft | 404 kts | 273° |
| 2026-04-25 00:12 | 29.52254 | -94.04745 | 13877 ft | 395 kts | 273° |
| 2026-04-25 00:12 | 29.52360 | -94.07828 | 13292 ft | 382 kts | 273° |
| 2026-04-25 00:12 | 29.52459 | -94.10749 | 12372 ft | 356 kts | 273° |
| 2026-04-25 00:12 | 29.52550 | -94.13444 | 12179 ft | 317 kts | 273° |
| 2026-04-25 00:13 | 29.52628 | -94.15813 | 12185 ft | 278 kts | 272° |
| 2026-04-25 00:13 | 29.52656 | -94.17970 | 12219 ft | 276 kts | 271° |
| 2026-04-25 00:13 | 29.52688 | -94.20213 | 12225 ft | 287 kts | 272° |
| 2026-04-25 00:13 | 29.52743 | -94.22512 | 12213 ft | 286 kts | 274° |
| 2026-04-25 00:14 | 29.53115 | -94.24731 | 12233 ft | 287 kts | 292° |
| 2026-04-25 00:14 | 29.54163 | -94.26691 | 12271 ft | 290 kts | 311° |
| 2026-04-25 00:14 | 29.55710 | -94.28195 | 12223 ft | 294 kts | 316° |
| 2026-04-25 00:14 | 29.57062 | -94.29957 | 11820 ft | 300 kts | 299° |
| 2026-04-25 00:15 | 29.57847 | -94.32134 | 11342 ft | 291 kts | 286° |
| 2026-04-25 00:15 | 29.58497 | -94.34314 | 10825 ft | 291 kts | 291° |
| 2026-04-25 00:15 | 29.59282 | -94.36420 | 10762 ft | 277 kts | 293° |
| 2026-04-25 00:15 | 29.60061 | -94.38341 | 10619 ft | 253 kts | 294° |
| 2026-04-25 00:16 | 29.60805 | -94.40076 | 10473 ft | 236 kts | 295° |
| 2026-04-25 00:16 | 29.61586 | -94.41832 | 10430 ft | 259 kts | 296° |
| 2026-04-25 00:16 | 29.62461 | -94.43749 | 10337 ft | 280 kts | 296° |
| 2026-04-25 00:16 | 29.63397 | -94.45764 | 10187 ft | 285 kts | 297° |
| 2026-04-25 00:17 | 29.64331 | -94.47761 | 9969 ft | 281 kts | 297° |
| 2026-04-25 00:17 | 29.65233 | -94.49682 | 9835 ft | 271 kts | 297° |
| 2026-04-25 00:17 | 29.66138 | -94.51609 | 9733 ft | 275 kts | 297° |
| 2026-04-25 00:17 | 29.67042 | -94.53528 | 9581 ft | 271 kts | 298° |
| 2026-04-25 00:18 | 29.68200 | -94.55252 | 9277 ft | 274 kts | 314° |
| 2026-04-25 00:18 | 29.69559 | -94.56750 | 8988 ft | 272 kts | 314° |
| 2026-04-25 00:18 | 29.70916 | -94.58266 | 8687 ft | 269 kts | 314° |
| 2026-04-25 00:18 | 29.72252 | -94.59749 | 8388 ft | 269 kts | 314° |
| 2026-04-25 00:19 | 29.73617 | -94.61257 | 8081 ft | 268 kts | 314° |
| 2026-04-25 00:19 | 29.74947 | -94.62724 | 7778 ft | 267 kts | 314° |
| 2026-04-25 00:19 | 29.76283 | -94.64198 | 7477 ft | 266 kts | 314° |
| 2026-04-25 00:19 | 29.77627 | -94.65679 | 7172 ft | 266 kts | 314° |
| 2026-04-25 00:20 | 29.78948 | -94.67133 | 7081 ft | 255 kts | 314° |
| 2026-04-25 00:20 | 29.80188 | -94.68498 | 6960 ft | 239 kts | 314° |
| 2026-04-25 00:20 | 29.81374 | -94.69807 | 6468 ft | 232 kts | 314° |
| 2026-04-25 00:20 | 29.82542 | -94.71095 | 6062 ft | 234 kts | 314° |
| 2026-04-25 00:21 | 29.83727 | -94.72412 | 5696 ft | 233 kts | 314° |
| 2026-04-25 00:21 | 29.84922 | -94.73740 | 5452 ft | 230 kts | 314° |
| 2026-04-25 00:21 | 29.86062 | -94.75008 | 5197 ft | 225 kts | 313° |
| 2026-04-25 00:21 | 29.87210 | -94.76288 | 4956 ft | 239 kts | 314° |
| 2026-04-25 00:22 | 29.88441 | -94.77660 | 4625 ft | 249 kts | 313° |
| 2026-04-25 00:22 | 29.89659 | -94.79012 | 4337 ft | 233 kts | 313° |
| 2026-04-25 00:22 | 29.90787 | -94.80267 | 4112 ft | 226 kts | 313° |
| 2026-04-25 00:22 | 29.91937 | -94.81535 | 3753 ft | 226 kts | 314° |
| 2026-04-25 00:23 | 29.93057 | -94.82755 | 3574 ft | 222 kts | 314° |
| 2026-04-25 00:23 | 29.94189 | -94.83993 | 3364 ft | 227 kts | 314° |
| 2026-04-25 00:23 | 29.95351 | -94.85264 | 3111 ft | 229 kts | 313° |
| 2026-04-25 00:23 | 29.96205 | -94.86755 | 2887 ft | 220 kts | 288° |
| 2026-04-25 00:24 | 29.96738 | -94.88398 | 2899 ft | 219 kts | 288° |
| 2026-04-25 00:24 | 29.97289 | -94.90057 | 2912 ft | 224 kts | 287° |
| 2026-04-25 00:24 | 29.97688 | -94.91775 | 2913 ft | 219 kts | 271° |
| 2026-04-25 00:24 | 29.97713 | -94.93529 | 2927 ft | 218 kts | 266° |
| 2026-04-25 00:25 | 29.97709 | -94.95272 | 2928 ft | 218 kts | 267° |
| 2026-04-25 00:25 | 29.97715 | -94.97010 | 2927 ft | 217 kts | 268° |
| 2026-04-25 00:25 | 29.97720 | -94.98764 | 2930 ft | 217 kts | 267° |
| 2026-04-25 00:25 | 29.97724 | -95.00509 | 2927 ft | 218 kts | 267° |
| 2026-04-25 00:26 | 29.97728 | -95.02261 | 2908 ft | 219 kts | 267° |
| 2026-04-25 00:26 | 29.97733 | -95.04028 | 2892 ft | 219 kts | 268° |
| 2026-04-25 00:26 | 29.97736 | -95.05783 | 2852 ft | 220 kts | 268° |
| 2026-04-25 00:26 | 29.97739 | -95.07554 | 2730 ft | 222 kts | 267° |
| 2026-04-25 00:27 | 29.97743 | -95.09349 | 2535 ft | 222 kts | 267° |
| 2026-04-25 00:27 | 29.97746 | -95.11108 | 2476 ft | 216 kts | 267° |
| 2026-04-25 00:27 | 29.97750 | -95.12772 | 2474 ft | 201 kts | 267° |
| 2026-04-25 00:27 | 29.97755 | -95.14311 | 2496 ft | 181 kts | 266° |
| 2026-04-25 00:28 | 29.97755 | -95.15756 | 2497 ft | 182 kts | 266° |
| 2026-04-25 00:28 | 29.97754 | -95.17242 | 2246 ft | 182 kts | 266° |
| 2026-04-25 00:28 | 29.97759 | -95.18639 | 1996 ft | 164 kts | 266° |
| 2026-04-25 00:28 | 29.97763 | -95.19874 | 1775 ft | 147 kts | 264° |
| 2026-04-25 00:29 | 29.97765 | -95.20984 | 1562 ft | 133 kts | 264° |
| 2026-04-25 00:29 | 29.97761 | -95.22062 | 1419 ft | 137 kts | 264° |
| 2026-04-25 00:29 | 29.97763 | -95.23174 | 1260 ft | 142 kts | 265° |
| 2026-04-25 00:29 | 29.97774 | -95.24321 | 1062 ft | 142 kts | 265° |
| 2026-04-25 00:30 | 29.97766 | -95.25453 | 893 ft | 141 kts | 265° |
| 2026-04-25 00:30 | 29.97767 | -95.26579 | 705 ft | 144 kts | 266° |
| 2026-04-25 00:30 | 29.97759 | -95.27769 | 546 ft | 148 kts | 265° |
| 2026-04-25 00:30 | 29.97759 | -95.28919 | 330 ft | 138 kts | 266° |
| 2026-04-25 00:31 | 29.97760 | -95.30029 | 169 ft | 136 kts | 265° |
| 2026-04-25 00:31 | 29.97756 | -95.31063 | 92 ft | 116 kts | 271° |
| 2026-04-25 00:31 | 29.97760 | -95.31795 | 93 ft | 67 kts | 270° |
| 2026-04-25 00:31 | 29.97755 | -95.32300 | 95 ft | 60 kts | 266° |
| 2026-04-25 00:32 | 29.97774 | -95.32754 | 96 ft | 51 kts | 284° |
| 2026-04-25 00:32 | 29.97910 | -95.33017 | 96 ft | 22 kts | 341° |
| 2026-04-25 00:32 | 29.98045 | -95.33020 | 97 ft | 15 kts | 1° |
| 2026-04-25 00:32 | 29.98143 | -95.33026 | 99 ft | 13 kts | 357° |
| 2026-04-25 00:33 | 29.98248 | -95.33029 | 99 ft | 16 kts | 355° |
| 2026-04-25 00:33 | 29.98301 | -95.33092 | 99 ft | 2 kts | 293° |
| 2026-04-25 00:33 | 29.98346 | -95.33142 | 99 ft | 12 kts | 321° |
| 2026-04-25 00:33 | 29.98377 | -95.33172 | 99 ft | 0 kts | 320° |